sensor_id;sensor_type;location;lat;lon;timestamp;temperature;humidity
75782;DHT22;64400;44.762;37.698;2023-01-19T00:01:05;11.29;66.13
75782;DHT22;64400;44.762;37.698;2023-01-19T00:03:34;11.31;65.75
75782;DHT22;64400;44.762;37.698;2023-01-19T00:06:06;11.39;65.11
75782;DHT22;64400;44.762;37.698;2023-01-19T00:08:34;11.44;64.39
75782;DHT22;64400;44.762;37.698;2023-01-19T00:11:02;11.47;64.18
75782;DHT22;64400;44.762;37.698;2023-01-19T00:13:30;11.51;63.80
75782;DHT22;64400;44.762;37.698;2023-01-19T00:15:58;11.51;63.69
75782;DHT22;64400;44.762;37.698;2023-01-19T00:18:28;11.52;62.81
75782;DHT22;64400;44.762;37.698;2023-01-19T00:20:56;11.66;61.67
75782;DHT22;64400;44.762;37.698;2023-01-19T00:23:24;11.86;60.68
75782;DHT22;64400;44.762;37.698;2023-01-19T00:25:52;12.11;59.07
75782;DHT22;64400;44.762;37.698;2023-01-19T00:28:20;12.21;59.04
75782;DHT22;64400;44.762;37.698;2023-01-19T00:30:49;12.23;58.90
75782;DHT22;64400;44.762;37.698;2023-01-19T00:33:17;12.27;57.56
75782;DHT22;64400;44.762;37.698;2023-01-19T00:35:52;12.25;59.11
75782;DHT22;64400;44.762;37.698;2023-01-19T00:38:21;12.16;59.66
75782;DHT22;64400;44.762;37.698;2023-01-19T00:40:50;12.11;59.34
75782;DHT22;64400;44.762;37.698;2023-01-19T00:43:18;12.08;59.80
75782;DHT22;64400;44.762;37.698;2023-01-19T00:45:48;12.07;59.50
75782;DHT22;64400;44.762;37.698;2023-01-19T00:48:18;12.08;59.46
75782;DHT22;64400;44.762;37.698;2023-01-19T00:50:55;12.00;59.80
75782;DHT22;64400;44.762;37.698;2023-01-19T00:53:23;12.03;59.91
75782;DHT22;64400;44.762;37.698;2023-01-19T00:55:51;12.01;59.89
75782;DHT22;64400;44.762;37.698;2023-01-19T00:58:18;12.00;59.94
75782;DHT22;64400;44.762;37.698;2023-01-19T01:00:46;11.98;60.16
75782;DHT22;64400;44.762;37.698;2023-01-19T01:03:14;12.00;60.06
75782;DHT22;64400;44.762;37.698;2023-01-19T01:05:42;11.92;60.51
75782;DHT22;64400;44.762;37.698;2023-01-19T01:08:10;11.92;60.86
75782;DHT22;64400;44.762;37.698;2023-01-19T01:10:38;11.82;62.34
75782;DHT22;64400;44.762;37.698;2023-01-19T01:13:06;11.64;63.44
75782;DHT22;64400;44.762;37.698;2023-01-19T01:15:51;11.46;63.98
75782;DHT22;64400;44.762;37.698;2023-01-19T01:18:20;11.33;64.01
75782;DHT22;64400;44.762;37.698;2023-01-19T01:20:48;11.29;63.79
75782;DHT22;64400;44.762;37.698;2023-01-19T01:23:16;11.14;64.27
75782;DHT22;64400;44.762;37.698;2023-01-19T01:25:49;11.05;65.05
75782;DHT22;64400;44.762;37.698;2023-01-19T01:28:17;10.93;65.58
75782;DHT22;64400;44.762;37.698;2023-01-19T01:30:45;10.77;65.90
75782;DHT22;64400;44.762;37.698;2023-01-19T01:33:13;10.69;65.85
75782;DHT22;64400;44.762;37.698;2023-01-19T01:35:41;10.63;66.14
75782;DHT22;64400;44.762;37.698;2023-01-19T01:38:09;10.66;65.85
75782;DHT22;64400;44.762;37.698;2023-01-19T01:40:44;10.65;65.76
75782;DHT22;64400;44.762;37.698;2023-01-19T01:43:13;10.64;65.97
75782;DHT22;64400;44.762;37.698;2023-01-19T01:45:42;10.59;66.04
75782;DHT22;64400;44.762;37.698;2023-01-19T01:48:23;10.53;66.88
75782;DHT22;64400;44.762;37.698;2023-01-19T01:56:42;10.13;69.05
75782;DHT22;64400;44.762;37.698;2023-01-19T01:59:14;9.97;69.26
75782;DHT22;64400;44.762;37.698;2023-01-19T02:01:56;9.82;69.19
75782;DHT22;64400;44.762;37.698;2023-01-19T02:04:51;9.81;69.74
75782;DHT22;64400;44.762;37.698;2023-01-19T02:07:31;9.77;70.06
75782;DHT22;64400;44.762;37.698;2023-01-19T02:10:18;9.78;69.52
75782;DHT22;64400;44.762;37.698;2023-01-19T02:13:05;9.64;69.95
75782;DHT22;64400;44.762;37.698;2023-01-19T02:15:54;9.52;71.25
75782;DHT22;64400;44.762;37.698;2023-01-19T02:18:26;9.48;71.19
75782;DHT22;64400;44.762;37.698;2023-01-19T02:21:05;9.45;70.54
75782;DHT22;64400;44.762;37.698;2023-01-19T02:23:42;9.44;70.23
75782;DHT22;64400;44.762;37.698;2023-01-19T02:26:14;9.45;70.54
75782;DHT22;64400;44.762;37.698;2023-01-19T02:28:47;9.44;70.52
75782;DHT22;64400;44.762;37.698;2023-01-19T02:31:16;9.37;70.82
75782;DHT22;64400;44.762;37.698;2023-01-19T02:33:45;9.36;70.79
75782;DHT22;64400;44.762;37.698;2023-01-19T02:36:16;9.36;70.71
75782;DHT22;64400;44.762;37.698;2023-01-19T02:38:45;9.38;70.78
75782;DHT22;64400;44.762;37.698;2023-01-19T02:41:18;9.33;71.46
75782;DHT22;64400;44.762;37.698;2023-01-19T02:43:48;9.26;71.68
75782;DHT22;64400;44.762;37.698;2023-01-19T02:46:18;9.19;72.06
75782;DHT22;64400;44.762;37.698;2023-01-19T02:48:46;9.08;72.68
75782;DHT22;64400;44.762;37.698;2023-01-19T02:51:20;9.00;72.80
75782;DHT22;64400;44.762;37.698;2023-01-19T02:59:37;8.78;73.80
75782;DHT22;64400;44.762;37.698;2023-01-19T03:10:39;8.72;73.73
75782;DHT22;64400;44.762;37.698;2023-01-19T03:13:29;8.68;73.75
75782;DHT22;64400;44.762;37.698;2023-01-19T03:16:19;8.66;73.95
75782;DHT22;64400;44.762;37.698;2023-01-19T03:18:53;8.66;73.07
75782;DHT22;64400;44.762;37.698;2023-01-19T03:21:25;8.80;72.66
75782;DHT22;64400;44.762;37.698;2023-01-19T03:23:56;8.81;71.95
75782;DHT22;64400;44.762;37.698;2023-01-19T03:26:27;9.20;70.03
75782;DHT22;64400;44.762;37.698;2023-01-19T03:28:59;9.22;70.35
75782;DHT22;64400;44.762;37.698;2023-01-19T03:31:32;9.24;69.65
75782;DHT22;64400;44.762;37.698;2023-01-19T03:34:06;9.22;71.02
75782;DHT22;64400;44.762;37.698;2023-01-19T03:36:48;9.16;70.10
75782;DHT22;64400;44.762;37.698;2023-01-19T03:39:21;9.15;70.93
75782;DHT22;64400;44.762;37.698;2023-01-19T03:41:59;9.17;70.03
75782;DHT22;64400;44.762;37.698;2023-01-19T03:44:30;9.11;70.14
75782;DHT22;64400;44.762;37.698;2023-01-19T03:46:58;9.04;71.22
75782;DHT22;64400;44.762;37.698;2023-01-19T03:49:29;8.98;71.32
75782;DHT22;64400;44.762;37.698;2023-01-19T03:52:04;9.06;70.00
75782;DHT22;64400;44.762;37.698;2023-01-19T03:54:32;9.17;69.74
75782;DHT22;64400;44.762;37.698;2023-01-19T03:57:00;9.35;68.66
75782;DHT22;64400;44.762;37.698;2023-01-19T03:59:36;9.52;68.36
75782;DHT22;64400;44.762;37.698;2023-01-19T04:02:04;9.65;67.40
75782;DHT22;64400;44.762;37.698;2023-01-19T04:04:32;9.96;66.45
75782;DHT22;64400;44.762;37.698;2023-01-19T04:07:02;10.19;65.55
75782;DHT22;64400;44.762;37.698;2023-01-19T04:09:30;10.28;65.50
75782;DHT22;64400;44.762;37.698;2023-01-19T04:11:58;10.37;65.33
75782;DHT22;64400;44.762;37.698;2023-01-19T04:14:28;10.44;65.23
75782;DHT22;64400;44.762;37.698;2023-01-19T04:16:56;10.49;65.24
75782;DHT22;64400;44.762;37.698;2023-01-19T04:19:24;10.60;64.79
75782;DHT22;64400;44.762;37.698;2023-01-19T04:21:52;10.74;64.11
75782;DHT22;64400;44.762;37.698;2023-01-19T04:24:20;10.93;63.43
75782;DHT22;64400;44.762;37.698;2023-01-19T04:26:50;11.02;63.24
75782;DHT22;64400;44.762;37.698;2023-01-19T04:29:19;11.09;63.08
75782;DHT22;64400;44.762;37.698;2023-01-19T04:31:50;11.04;63.34
75782;DHT22;64400;44.762;37.698;2023-01-19T04:34:20;11.03;63.04
75782;DHT22;64400;44.762;37.698;2023-01-19T04:36:50;10.95;63.84
75782;DHT22;64400;44.762;37.698;2023-01-19T04:39:21;10.81;65.54
75782;DHT22;64400;44.762;37.698;2023-01-19T04:41:49;10.54;66.44
75782;DHT22;64400;44.762;37.698;2023-01-19T04:44:18;10.35;67.07
75782;DHT22;64400;44.762;37.698;2023-01-19T04:46:46;10.16;67.61
75782;DHT22;64400;44.762;37.698;2023-01-19T04:49:14;10.00;67.70
75782;DHT22;64400;44.762;37.698;2023-01-19T04:51:45;9.93;67.92
75782;DHT22;64400;44.762;37.698;2023-01-19T04:54:13;9.84;68.26
75782;DHT22;64400;44.762;37.698;2023-01-19T04:56:41;9.80;68.83
75782;DHT22;64400;44.762;37.698;2023-01-19T04:59:09;9.67;69.44
75782;DHT22;64400;44.762;37.698;2023-01-19T05:01:37;9.57;69.11
75782;DHT22;64400;44.762;37.698;2023-01-19T05:04:05;9.50;69.43
75782;DHT22;64400;44.762;37.698;2023-01-19T05:06:36;9.44;70.08
75782;DHT22;64400;44.762;37.698;2023-01-19T05:09:04;9.40;69.91
75782;DHT22;64400;44.762;37.698;2023-01-19T05:11:34;9.38;70.56
75782;DHT22;64400;44.762;37.698;2023-01-19T05:14:02;9.38;70.92
75782;DHT22;64400;44.762;37.698;2023-01-19T05:16:30;9.40;70.41
75782;DHT22;64400;44.762;37.698;2023-01-19T05:18:58;9.48;70.84
75782;DHT22;64400;44.762;37.698;2023-01-19T05:21:26;9.50;70.95
75782;DHT22;64400;44.762;37.698;2023-01-19T05:23:57;9.55;70.52
75782;DHT22;64400;44.762;37.698;2023-01-19T05:26:25;9.61;70.71
75782;DHT22;64400;44.762;37.698;2023-01-19T05:28:52;9.74;70.07
75782;DHT22;64400;44.762;37.698;2023-01-19T05:31:21;9.88;69.84
75782;DHT22;64400;44.762;37.698;2023-01-19T05:33:50;10.04;69.46
75782;DHT22;64400;44.762;37.698;2023-01-19T05:36:21;10.22;68.76
75782;DHT22;64400;44.762;37.698;2023-01-19T05:38:49;10.41;68.17
75782;DHT22;64400;44.762;37.698;2023-01-19T05:41:17;10.62;68.18
75782;DHT22;64400;44.762;37.698;2023-01-19T05:43:44;10.79;67.03
75782;DHT22;64400;44.762;37.698;2023-01-19T05:46:12;11.01;66.40
75782;DHT22;64400;44.762;37.698;2023-01-19T05:48:40;11.24;66.23
75782;DHT22;64400;44.762;37.698;2023-01-19T05:51:12;11.41;66.13
75782;DHT22;64400;44.762;37.698;2023-01-19T05:53:41;11.63;64.96
75782;DHT22;64400;44.762;37.698;2023-01-19T05:56:09;11.87;64.21
75782;DHT22;64400;44.762;37.698;2023-01-19T05:58:38;12.11;63.40
75782;DHT22;64400;44.762;37.698;2023-01-19T06:01:08;12.33;63.24
75782;DHT22;64400;44.762;37.698;2023-01-19T06:03:41;12.62;62.21
75782;DHT22;64400;44.762;37.698;2023-01-19T06:06:09;12.89;61.22
75782;DHT22;64400;44.762;37.698;2023-01-19T06:08:36;13.18;60.61
75782;DHT22;64400;44.762;37.698;2023-01-19T06:11:05;13.44;59.38
75782;DHT22;64400;44.762;37.698;2023-01-19T06:13:34;13.73;59.39
75782;DHT22;64400;44.762;37.698;2023-01-19T06:16:02;14.03;57.90
75782;DHT22;64400;44.762;37.698;2023-01-19T06:18:41;14.34;58.83
75782;DHT22;64400;44.762;37.698;2023-01-19T06:21:09;14.58;58.17
75782;DHT22;64400;44.762;37.698;2023-01-19T06:23:41;14.82;57.84
75782;DHT22;64400;44.762;37.698;2023-01-19T06:26:10;14.94;57.26
75782;DHT22;64400;44.762;37.698;2023-01-19T06:28:38;15.47;56.00
75782;DHT22;64400;44.762;37.698;2023-01-19T06:31:07;15.96;55.71
75782;DHT22;64400;44.762;37.698;2023-01-19T06:33:35;16.34;54.39
75782;DHT22;64400;44.762;37.698;2023-01-19T06:36:03;16.31;50.98
75782;DHT22;64400;44.762;37.698;2023-01-19T06:38:30;16.11;48.39
75782;DHT22;64400;44.762;37.698;2023-01-19T06:40:59;16.21;47.85
75782;DHT22;64400;44.762;37.698;2023-01-19T06:43:30;16.22;49.27
75782;DHT22;64400;44.762;37.698;2023-01-19T06:45:58;16.28;46.80
75782;DHT22;64400;44.762;37.698;2023-01-19T06:48:27;16.56;45.86
75782;DHT22;64400;44.762;37.698;2023-01-19T06:50:55;16.56;47.67
75782;DHT22;64400;44.762;37.698;2023-01-19T06:53:26;16.33;46.06
75782;DHT22;64400;44.762;37.698;2023-01-19T06:56:02;16.43;46.96
75782;DHT22;64400;44.762;37.698;2023-01-19T06:58:31;16.48;46.33
75782;DHT22;64400;44.762;37.698;2023-01-19T07:01:02;16.24;46.15
75782;DHT22;64400;44.762;37.698;2023-01-19T07:03:32;16.37;46.86
75782;DHT22;64400;44.762;37.698;2023-01-19T07:06:00;16.73;46.38
75782;DHT22;64400;44.762;37.698;2023-01-19T07:08:34;16.93;45.80
75782;DHT22;64400;44.762;37.698;2023-01-19T07:11:04;16.99;44.96
75782;DHT22;64400;44.762;37.698;2023-01-19T07:13:53;17.44;44.35
75782;DHT22;64400;44.762;37.698;2023-01-19T07:16:22;17.60;43.99
75782;DHT22;64400;44.762;37.698;2023-01-19T07:18:50;17.63;43.82
75782;DHT22;64400;44.762;37.698;2023-01-19T07:21:18;17.82;44.05
75782;DHT22;64400;44.762;37.698;2023-01-19T07:23:52;17.94;43.06
75782;DHT22;64400;44.762;37.698;2023-01-19T07:26:20;18.09;43.42
75782;DHT22;64400;44.762;37.698;2023-01-19T07:28:51;17.98;43.02
75782;DHT22;64400;44.762;37.698;2023-01-19T07:31:19;17.77;43.26
75782;DHT22;64400;44.762;37.698;2023-01-19T07:33:47;17.72;42.57
75782;DHT22;64400;44.762;37.698;2023-01-19T07:36:15;17.68;43.14
75782;DHT22;64400;44.762;37.698;2023-01-19T07:38:43;17.73;43.26
75782;DHT22;64400;44.762;37.698;2023-01-19T07:41:11;17.85;43.00
75782;DHT22;64400;44.762;37.698;2023-01-19T07:43:39;17.83;41.90
75782;DHT22;64400;44.762;37.698;2023-01-19T07:46:07;18.03;41.39
75782;DHT22;64400;44.762;37.698;2023-01-19T07:48:35;18.15;40.78
75782;DHT22;64400;44.762;37.698;2023-01-19T07:51:04;18.11;39.57
75782;DHT22;64400;44.762;37.698;2023-01-19T07:53:38;18.08;38.75
75782;DHT22;64400;44.762;37.698;2023-01-19T07:56:08;18.29;39.56
75782;DHT22;64400;44.762;37.698;2023-01-19T07:58:37;18.26;37.98
75782;DHT22;64400;44.762;37.698;2023-01-19T08:01:10;17.96;38.36
75782;DHT22;64400;44.762;37.698;2023-01-19T08:03:38;18.05;38.71
75782;DHT22;64400;44.762;37.698;2023-01-19T08:06:24;18.06;38.49
75782;DHT22;64400;44.762;37.698;2023-01-19T08:08:53;18.21;38.20
75782;DHT22;64400;44.762;37.698;2023-01-19T08:11:21;18.14;38.32
75782;DHT22;64400;44.762;37.698;2023-01-19T08:13:49;17.88;38.68
75782;DHT22;64400;44.762;37.698;2023-01-19T08:16:17;17.93;39.07
75782;DHT22;64400;44.762;37.698;2023-01-19T08:18:45;18.03;38.56
75782;DHT22;64400;44.762;37.698;2023-01-19T08:21:13;18.06;38.58
75782;DHT22;64400;44.762;37.698;2023-01-19T08:23:41;18.00;38.25
75782;DHT22;64400;44.762;37.698;2023-01-19T08:26:20;17.99;38.98
75782;DHT22;64400;44.762;37.698;2023-01-19T08:28:51;18.03;38.54
75782;DHT22;64400;44.762;37.698;2023-01-19T08:31:19;18.22;38.00
75782;DHT22;64400;44.762;37.698;2023-01-19T08:33:51;18.63;37.46
75782;DHT22;64400;44.762;37.698;2023-01-19T08:36:19;18.51;37.91
75782;DHT22;64400;44.762;37.698;2023-01-19T08:38:47;18.39;38.53
75782;DHT22;64400;44.762;37.698;2023-01-19T08:41:16;18.35;37.91
75782;DHT22;64400;44.762;37.698;2023-01-19T08:43:44;18.71;38.08
75782;DHT22;64400;44.762;37.698;2023-01-19T08:46:12;19.25;37.50
75782;DHT22;64400;44.762;37.698;2023-01-19T08:48:44;19.58;36.57
75782;DHT22;64400;44.762;37.698;2023-01-19T08:51:12;18.85;36.53
75782;DHT22;64400;44.762;37.698;2023-01-19T08:53:41;18.92;36.70
75782;DHT22;64400;44.762;37.698;2023-01-19T08:56:10;18.89;36.74
75782;DHT22;64400;44.762;37.698;2023-01-19T08:58:42;18.65;37.66
75782;DHT22;64400;44.762;37.698;2023-01-19T09:01:12;18.72;37.21
75782;DHT22;64400;44.762;37.698;2023-01-19T09:03:49;18.67;38.05
75782;DHT22;64400;44.762;37.698;2023-01-19T09:06:18;18.47;37.63
75782;DHT22;64400;44.762;37.698;2023-01-19T09:08:46;18.26;38.43
75782;DHT22;64400;44.762;37.698;2023-01-19T09:11:14;18.25;37.43
75782;DHT22;64400;44.762;37.698;2023-01-19T09:13:44;18.49;37.73
75782;DHT22;64400;44.762;37.698;2023-01-19T09:16:12;18.26;38.17
75782;DHT22;64400;44.762;37.698;2023-01-19T09:18:41;18.04;39.21
75782;DHT22;64400;44.762;37.698;2023-01-19T09:21:09;18.08;39.20
75782;DHT22;64400;44.762;37.698;2023-01-19T09:23:37;18.28;39.17
75782;DHT22;64400;44.762;37.698;2023-01-19T09:26:05;18.46;38.84
75782;DHT22;64400;44.762;37.698;2023-01-19T09:28:33;18.51;37.88
75782;DHT22;64400;44.762;37.698;2023-01-19T09:31:06;18.52;37.61
75782;DHT22;64400;44.762;37.698;2023-01-19T09:33:34;18.66;38.19
75782;DHT22;64400;44.762;37.698;2023-01-19T09:36:02;18.71;37.83
75782;DHT22;64400;44.762;37.698;2023-01-19T09:38:30;18.83;37.75
75782;DHT22;64400;44.762;37.698;2023-01-19T09:40:59;18.89;38.25
75782;DHT22;64400;44.762;37.698;2023-01-19T09:46:00;18.30;39.00
75782;DHT22;64400;44.762;37.698;2023-01-19T09:48:41;18.35;39.96
75782;DHT22;64400;44.762;37.698;2023-01-19T09:51:47;18.47;39.47
75782;DHT22;64400;44.762;37.698;2023-01-19T09:54:45;18.55;40.11
75782;DHT22;64400;44.762;37.698;2023-01-19T09:57:16;19.02;38.68
75782;DHT22;64400;44.762;37.698;2023-01-19T09:59:44;18.88;39.60
75782;DHT22;64400;44.762;37.698;2023-01-19T10:05:01;18.42;39.24
75782;DHT22;64400;44.762;37.698;2023-01-19T10:10:22;18.72;39.38
75782;DHT22;64400;44.762;37.698;2023-01-19T10:13:00;18.96;38.82
75782;DHT22;64400;44.762;37.698;2023-01-19T10:18:27;19.03;38.62
75782;DHT22;64400;44.762;37.698;2023-01-19T10:23:56;19.00;38.59
75782;DHT22;64400;44.762;37.698;2023-01-19T10:26:39;18.71;39.19
75782;DHT22;64400;44.762;37.698;2023-01-19T10:29:23;18.49;39.79
75782;DHT22;64400;44.762;37.698;2023-01-19T10:32:21;18.42;40.46
75782;DHT22;64400;44.762;37.698;2023-01-19T10:34:49;18.44;40.12
75782;DHT22;64400;44.762;37.698;2023-01-19T10:40:12;17.39;42.84
75782;DHT22;64400;44.762;37.698;2023-01-19T10:42:42;17.05;44.51
75782;DHT22;64400;44.762;37.698;2023-01-19T10:45:17;17.05;44.74
75782;DHT22;64400;44.762;37.698;2023-01-19T10:47:47;17.01;45.34
75782;DHT22;64400;44.762;37.698;2023-01-19T10:50:35;17.25;45.26
75782;DHT22;64400;44.762;37.698;2023-01-19T10:53:19;17.90;44.03
75782;DHT22;64400;44.762;37.698;2023-01-19T10:56:21;18.00;43.73
75782;DHT22;64400;44.762;37.698;2023-01-19T10:58:50;18.11;43.34
75782;DHT22;64400;44.762;37.698;2023-01-19T11:01:24;18.22;43.17
75782;DHT22;64400;44.762;37.698;2023-01-19T11:03:53;18.32;42.48
75782;DHT22;64400;44.762;37.698;2023-01-19T11:06:26;18.26;42.87
75782;DHT22;64400;44.762;37.698;2023-01-19T11:09:19;18.72;42.03
75782;DHT22;64400;44.762;37.698;2023-01-19T11:11:51;18.69;41.81
75782;DHT22;64400;44.762;37.698;2023-01-19T11:14:22;18.56;41.72
75782;DHT22;64400;44.762;37.698;2023-01-19T11:16:53;18.77;41.55
75782;DHT22;64400;44.762;37.698;2023-01-19T11:19:31;19.23;41.08
75782;DHT22;64400;44.762;37.698;2023-01-19T11:22:19;19.68;39.35
75782;DHT22;64400;44.762;37.698;2023-01-19T11:24:50;19.69;39.60
75782;DHT22;64400;44.762;37.698;2023-01-19T11:27:19;19.65;39.44
75782;DHT22;64400;44.762;37.698;2023-01-19T11:29:52;19.80;39.79
75782;DHT22;64400;44.762;37.698;2023-01-19T11:32:25;19.13;41.12
75782;DHT22;64400;44.762;37.698;2023-01-19T11:34:53;19.52;40.58
75782;DHT22;64400;44.762;37.698;2023-01-19T11:37:27;20.05;39.56
75782;DHT22;64400;44.762;37.698;2023-01-19T11:39:58;20.29;39.27
75782;DHT22;64400;44.762;37.698;2023-01-19T11:42:29;20.26;39.51
75782;DHT22;64400;44.762;37.698;2023-01-19T11:45:06;19.83;40.13
75782;DHT22;64400;44.762;37.698;2023-01-19T11:47:46;19.69;40.69
75782;DHT22;64400;44.762;37.698;2023-01-19T11:50:38;19.40;41.40
75782;DHT22;64400;44.762;37.698;2023-01-19T11:53:24;19.27;42.62
75782;DHT22;64400;44.762;37.698;2023-01-19T11:55:58;19.14;42.58
75782;DHT22;64400;44.762;37.698;2023-01-19T11:58:30;18.85;43.38
75782;DHT22;64400;44.762;37.698;2023-01-19T12:01:03;19.00;43.33
75782;DHT22;64400;44.762;37.698;2023-01-19T12:03:50;19.02;42.47
75782;DHT22;64400;44.762;37.698;2023-01-19T12:06:25;19.18;42.44
75782;DHT22;64400;44.762;37.698;2023-01-19T12:09:11;19.21;41.70
75782;DHT22;64400;44.762;37.698;2023-01-19T12:14:23;18.41;44.08
75782;DHT22;64400;44.762;37.698;2023-01-19T12:16:56;18.51;43.83
75782;DHT22;64400;44.762;37.698;2023-01-19T12:19:36;18.30;44.45
75782;DHT22;64400;44.762;37.698;2023-01-19T12:22:13;18.02;45.87
75782;DHT22;64400;44.762;37.698;2023-01-19T12:27:39;16.94;48.72
75782;DHT22;64400;44.762;37.698;2023-01-19T12:30:22;16.63;49.41
75782;DHT22;64400;44.762;37.698;2023-01-19T12:32:51;16.74;49.27
75782;DHT22;64400;44.762;37.698;2023-01-19T12:38:54;16.88;49.12
75782;DHT22;64400;44.762;37.698;2023-01-19T12:41:34;16.50;50.25
75782;DHT22;64400;44.762;37.698;2023-01-19T12:46:52;16.37;50.28
75782;DHT22;64400;44.762;37.698;2023-01-19T12:57:29;16.16;50.61
75782;DHT22;64400;44.762;37.698;2023-01-19T13:00:00;16.30;50.15
75782;DHT22;64400;44.762;37.698;2023-01-19T13:02:41;16.32;50.40
75782;DHT22;64400;44.762;37.698;2023-01-19T13:21:41;16.17;50.13
75782;DHT22;64400;44.762;37.698;2023-01-19T13:24:18;16.65;49.17
75782;DHT22;64400;44.762;37.698;2023-01-19T13:29:39;16.10;49.93
75782;DHT22;64400;44.762;37.698;2023-01-19T13:32:16;15.69;50.04
75782;DHT22;64400;44.762;37.698;2023-01-19T13:34:55;15.43;51.20
75782;DHT22;64400;44.762;37.698;2023-01-19T13:37:32;15.22;52.31
75782;DHT22;64400;44.762;37.698;2023-01-19T13:40:02;15.02;52.46
75782;DHT22;64400;44.762;37.698;2023-01-19T13:42:39;14.99;53.64
75782;DHT22;64400;44.762;37.698;2023-01-19T13:45:32;14.95;53.88
75782;DHT22;64400;44.762;37.698;2023-01-19T13:48:05;14.86;54.08
75782;DHT22;64400;44.762;37.698;2023-01-19T13:50:36;14.73;54.63
75782;DHT22;64400;44.762;37.698;2023-01-19T13:53:19;14.59;55.00
75782;DHT22;64400;44.762;37.698;2023-01-19T13:55:47;14.51;55.34
75782;DHT22;64400;44.762;37.698;2023-01-19T13:58:31;14.34;56.00
75782;DHT22;64400;44.762;37.698;2023-01-19T14:00:59;14.24;56.39
75782;DHT22;64400;44.762;37.698;2023-01-19T14:03:27;14.15;56.77
75782;DHT22;64400;44.762;37.698;2023-01-19T14:05:55;14.06;57.22
75782;DHT22;64400;44.762;37.698;2023-01-19T14:08:23;13.92;58.09
75782;DHT22;64400;44.762;37.698;2023-01-19T14:15:51;13.68;58.39
75782;DHT22;64400;44.762;37.698;2023-01-19T14:18:24;13.61;58.77
75782;DHT22;64400;44.762;37.698;2023-01-19T14:21:10;13.54;58.50
75782;DHT22;64400;44.762;37.698;2023-01-19T14:26:39;13.45;58.92
75782;DHT22;64400;44.762;37.698;2023-01-19T14:31:46;13.30;59.59
75782;DHT22;64400;44.762;37.698;2023-01-19T14:37:03;13.17;59.85
75782;DHT22;64400;44.762;37.698;2023-01-19T14:39:33;13.12;60.13
75782;DHT22;64400;44.762;37.698;2023-01-19T14:42:03;13.08;59.90
75782;DHT22;64400;44.762;37.698;2023-01-19T14:44:36;13.02;60.02
75782;DHT22;64400;44.762;37.698;2023-01-19T14:47:06;13.02;59.92
75782;DHT22;64400;44.762;37.698;2023-01-19T14:49:47;12.96;60.18
75782;DHT22;64400;44.762;37.698;2023-01-19T14:52:29;12.89;60.05
75782;DHT22;64400;44.762;37.698;2023-01-19T14:54:58;12.81;60.05
75782;DHT22;64400;44.762;37.698;2023-01-19T14:57:29;12.86;59.61
75782;DHT22;64400;44.762;37.698;2023-01-19T14:59:57;12.79;60.15
75782;DHT22;64400;44.762;37.698;2023-01-19T15:02:25;12.67;60.90
75782;DHT22;64400;44.762;37.698;2023-01-19T15:04:53;12.62;60.59
75782;DHT22;64400;44.762;37.698;2023-01-19T15:07:22;12.56;60.78
75782;DHT22;64400;44.762;37.698;2023-01-19T15:09:51;12.48;61.31
75782;DHT22;64400;44.762;37.698;2023-01-19T15:12:21;12.45;61.17
75782;DHT22;64400;44.762;37.698;2023-01-19T15:14:50;12.40;61.41
75782;DHT22;64400;44.762;37.698;2023-01-19T15:17:19;12.36;61.69
75782;DHT22;64400;44.762;37.698;2023-01-19T15:19:55;12.34;61.43
75782;DHT22;64400;44.762;37.698;2023-01-19T15:22:24;12.42;61.33
75782;DHT22;64400;44.762;37.698;2023-01-19T15:24:53;12.44;61.81
75782;DHT22;64400;44.762;37.698;2023-01-19T15:27:25;12.37;62.61
75782;DHT22;64400;44.762;37.698;2023-01-19T15:29:53;12.28;62.78
75782;DHT22;64400;44.762;37.698;2023-01-19T15:32:21;12.21;62.99
75782;DHT22;64400;44.762;37.698;2023-01-19T15:34:49;12.10;63.77
75782;DHT22;64400;44.762;37.698;2023-01-19T15:37:17;12.05;64.12
75782;DHT22;64400;44.762;37.698;2023-01-19T15:39:44;12.00;64.55
75782;DHT22;64400;44.762;37.698;2023-01-19T15:42:13;11.94;64.81
75782;DHT22;64400;44.762;37.698;2023-01-19T15:44:41;11.88;64.91
75782;DHT22;64400;44.762;37.698;2023-01-19T15:47:11;11.87;65.69
75782;DHT22;64400;44.762;37.698;2023-01-19T15:49:39;11.82;65.37
75782;DHT22;64400;44.762;37.698;2023-01-19T15:52:07;11.84;64.78
75782;DHT22;64400;44.762;37.698;2023-01-19T15:54:34;11.79;65.00
75782;DHT22;64400;44.762;37.698;2023-01-19T15:57:04;11.71;65.53
75782;DHT22;64400;44.762;37.698;2023-01-19T15:59:32;11.64;65.72
75782;DHT22;64400;44.762;37.698;2023-01-19T16:02:00;11.62;65.91
75782;DHT22;64400;44.762;37.698;2023-01-19T16:04:28;11.56;66.34
75782;DHT22;64400;44.762;37.698;2023-01-19T16:06:56;11.48;67.00
75782;DHT22;64400;44.762;37.698;2023-01-19T16:09:24;11.47;66.88
75782;DHT22;64400;44.762;37.698;2023-01-19T16:11:54;11.43;67.48
75782;DHT22;64400;44.762;37.698;2023-01-19T16:14:23;11.38;67.80
75782;DHT22;64400;44.762;37.698;2023-01-19T16:16:51;11.32;67.93
75782;DHT22;64400;44.762;37.698;2023-01-19T16:19:19;11.32;67.39
75782;DHT22;64400;44.762;37.698;2023-01-19T16:21:47;11.29;67.62
75782;DHT22;64400;44.762;37.698;2023-01-19T16:24:15;11.25;67.78
75782;DHT22;64400;44.762;37.698;2023-01-19T16:26:43;11.22;67.96
75782;DHT22;64400;44.762;37.698;2023-01-19T16:29:11;11.18;68.09
75782;DHT22;64400;44.762;37.698;2023-01-19T16:31:40;11.14;68.48
75782;DHT22;64400;44.762;37.698;2023-01-19T16:34:09;11.09;68.67
75782;DHT22;64400;44.762;37.698;2023-01-19T16:36:39;11.04;69.07
75782;DHT22;64400;44.762;37.698;2023-01-19T16:39:12;10.99;69.41
75782;DHT22;64400;44.762;37.698;2023-01-19T16:41:41;10.95;69.44
75782;DHT22;64400;44.762;37.698;2023-01-19T16:44:11;10.94;69.37
75782;DHT22;64400;44.762;37.698;2023-01-19T16:46:42;10.89;69.50
75782;DHT22;64400;44.762;37.698;2023-01-19T16:49:18;10.90;69.33
75782;DHT22;64400;44.762;37.698;2023-01-19T16:51:47;10.85;69.61
75782;DHT22;64400;44.762;37.698;2023-01-19T16:54:18;10.84;69.78
75782;DHT22;64400;44.762;37.698;2023-01-19T16:56:46;10.83;69.61
75782;DHT22;64400;44.762;37.698;2023-01-19T16:59:16;10.83;69.61
75782;DHT22;64400;44.762;37.698;2023-01-19T17:01:44;10.82;69.67
75782;DHT22;64400;44.762;37.698;2023-01-19T17:04:13;10.80;69.74
75782;DHT22;64400;44.762;37.698;2023-01-19T17:06:41;10.74;69.55
75782;DHT22;64400;44.762;37.698;2023-01-19T17:09:09;10.70;69.73
75782;DHT22;64400;44.762;37.698;2023-01-19T17:11:37;10.69;69.26
75782;DHT22;64400;44.762;37.698;2023-01-19T17:14:10;10.68;68.99